OINN  Noshahr  Airport

Iran

Add Bookmark
ICAO OINN
IATA NSH
Type Airport
Status Operational
Latitude
36° 39' 47" N
36.663300
Longitude
51° 27' 52" E
51.464699
Local (DST + 5) UTC (GMT + 4)
Feb 7, 2016 06:14 Feb 7, 2016 14:44
Sunrise-Sunset Local UTC
Begin Civil Twilight 06:32 03:02
Sunrise 06:59 03:29
Sunset 05:36 14:06
End Civil Twilight 06:03 14:33
VFR
VFR
MVFR
MVFR
IFR
IFR
LIFR
LIFR
Unknown
Unavailable

Current Weather

METAR Observed IFR
OINN 071400Z 33004KT 2000 +DZ OVC007 10/10 Q1018 Sun, Feb 7, 2016 @ 14:00 UTC
(44 Minutes ago)
Instrument Flight Rules
Wind Visibility Clouds Conditions
330° at 4 knots (7 kph) 1,996 m
  • Overcast at 700 ft AGL
  • Heavy Drizzle
Temperatures Readings Precipitation
Current Temp
10°C
50°F
Dewpoint
10°C
50°F
Humidity 100%
Altimeter 30.06" Hg
Sea Level Pressure 1,018 mb
None Recorded

Additional weather within a 92.6km radius of OINN

Map ICAO Location
OINR 75km W/NW (292°)
VFR
VFR
MVFR
MVFR
IFR
IFR
LIFR
LIFR
Unknown
Unavailable
-
-

CheckWX.com is intended as a tool to help pilots better visualize weather data. It is not intended as a substitute for an official weather briefing obtained from a Flight Service Station. CheckWX.com does not meet the FAA requirements for an official pre-flight weather briefing. Therefore, it's important that pilots still call and obtain an official FSS pre-flight weather briefing.

© 2007-2016 CheckWX.com
14:44:25 UTC